Time;durP1;ratioP1;P1;durP2;ratioP2;P2;SDS_P1;SDS_P2;PMS_P1;PMS_P2;Temp;Humidity;BMP_temperature;BMP_pressure;BME280_temperature;BME280_humidity;BME280_pressure;Samples;Min_cycle;Max_cycle;Signal;HPM_P1;HPM_P2
2023/08/06 00:01:06;;;;;;;28.58;14.07;;;;;;;14.82;100.00;96637.00;5030316;28;20457;-71
2023/08/06 00:03:32;;;;;;;29.45;14.07;;;;;;;14.82;100.00;96633.53;5030275;28;20395;-72
2023/08/06 00:05:58;;;;;;;27.35;13.20;;;;;;;14.78;100.00;96635.25;5030306;28;20407;-72
2023/08/06 00:08:26;;;;;;;28.98;13.80;;;;;;;14.73;100.00;96622.03;5033295;28;20454;-72
2023/08/06 00:10:52;;;;;;;31.73;14.48;;;;;;;14.68;100.00;96626.34;5034312;28;20411;-72
2023/08/06 00:13:19;;;;;;;33.58;15.77;;;;;;;14.64;100.00;96621.91;5034199;28;20796;-72
2023/08/06 00:15:45;;;;;;;28.92;14.10;;;;;;;14.58;100.00;96615.91;5046047;28;20424;-72
2023/08/06 00:18:11;;;;;;;33.88;14.52;;;;;;;14.53;100.00;96615.19;5053992;28;20405;-72
2023/08/06 00:20:40;;;;;;;31.73;14.95;;;;;;;14.47;100.00;96621.69;5053932;28;20879;-72
2023/08/06 00:23:06;;;;;;;29.25;13.60;;;;;;;14.41;100.00;96613.00;5053957;28;20402;-72
2023/08/06 00:25:34;;;;;;;34.97;15.02;;;;;;;14.35;100.00;96614.16;5053897;28;20404;-72
2023/08/06 00:28:00;;;;;;;34.35;15.07;;;;;;;14.28;100.00;96621.75;5053816;28;20401;-72
2023/08/06 00:30:26;;;;;;;30.02;14.25;;;;;;;14.24;100.00;96618.88;5053771;28;20883;-72
2023/08/06 00:32:52;;;;;;;26.00;12.88;;;;;;;14.20;100.00;96609.91;5053656;28;20463;-72
2023/08/06 00:35:19;;;;;;;26.57;14.17;;;;;;;14.16;100.00;96610.75;5053820;28;20480;-72
2023/08/06 00:37:45;;;;;;;26.45;12.45;;;;;;;14.10;100.00;96604.75;5053576;28;20405;-72
2023/08/06 00:40:11;;;;;;;28.10;12.38;;;;;;;14.05;100.00;96601.38;5053866;28;20439;-72
2023/08/06 00:42:38;;;;;;;28.15;14.18;;;;;;;14.01;100.00;96603.03;5053682;28;20898;-72
2023/08/06 00:45:06;;;;;;;34.93;15.27;;;;;;;13.99;100.00;96603.31;5053659;28;20404;-72
2023/08/06 00:47:32;;;;;;;26.80;12.70;;;;;;;13.94;100.00;96596.22;5053296;28;20492;-72
2023/08/06 00:49:58;;;;;;;31.08;12.45;;;;;;;13.90;100.00;96589.91;5053739;28;20433;-72
2023/08/06 00:52:24;;;;;;;26.15;11.63;;;;;;;13.90;100.00;96592.56;5053385;28;20922;-72
2023/08/06 00:54:51;;;;;;;25.52;11.77;;;;;;;13.85;100.00;96579.34;5053638;28;20398;-72
2023/08/06 00:57:18;;;;;;;23.70;10.38;;;;;;;13.79;100.00;96574.41;5053462;28;20406;-72
2023/08/06 00:59:46;;;;;;;24.50;11.10;;;;;;;13.75;100.00;96578.72;5053597;28;20400;-72
2023/08/06 01:02:12;;;;;;;25.10;10.95;;;;;;;13.73;100.00;96586.19;5053260;28;20423;-72
2023/08/06 01:04:38;;;;;;;30.98;13.43;;;;;;;13.69;100.00;96577.19;5053218;28;20443;-72
2023/08/06 01:07:19;;;;;;;27.05;11.07;;;;;;;13.65;100.00;96576.22;5053098;28;20398;-72
2023/08/06 01:09:54;;;;;;;26.75;11.93;;;;;;;13.61;100.00;96576.00;5053348;28;20394;-72
2023/08/06 01:12:34;;;;;;;26.75;11.98;;;;;;;13.57;100.00;96581.13;5052972;28;20413;-72
2023/08/06 01:15:10;;;;;;;33.17;13.35;;;;;;;13.54;100.00;96575.56;5053087;28;20406;-72
2023/08/06 01:17:37;;;;;;;27.73;11.43;;;;;;;13.50;100.00;96572.72;5052777;28;20830;-72
2023/08/06 01:20:04;;;;;;;29.67;13.27;;;;;;;13.50;100.00;96571.94;5053124;28;20410;-72
2023/08/06 01:22:32;;;;;;;23.90;11.60;;;;;;;13.50;100.00;96564.75;5052957;28;20400;-72
2023/08/06 01:24:58;;;;;;;23.77;11.50;;;;;;;13.51;100.00;96563.66;5053035;28;20467;-72
2023/08/06 01:27:30;;;;;;;24.45;11.57;;;;;;;13.51;100.00;96565.53;5051341;28;20413;-72
2023/08/06 01:30:02;;;;;;;26.67;10.73;;;;;;;13.50;100.00;96563.94;5052956;28;20484;-72
2023/08/06 01:32:32;;;;;;;24.63;10.95;;;;;;;13.50;100.00;96562.09;5052606;28;20424;-72
2023/08/06 01:35:00;;;;;;;26.23;10.90;;;;;;;13.50;100.00;96566.59;5052744;28;20425;-72
2023/08/06 01:37:27;;;;;;;27.48;11.98;;;;;;;13.49;100.00;96570.34;5052452;28;20405;-72
2023/08/06 01:39:55;;;;;;;24.63;11.00;;;;;;;13.48;100.00;96563.44;5052836;28;20487;-72
2023/08/06 01:42:21;;;;;;;19.58;9.55;;;;;;;13.46;100.00;96563.72;5052584;28;20404;-72
2023/08/06 01:44:47;;;;;;;20.55;9.75;;;;;;;13.42;100.00;96565.41;5052559;28;20402;-72
2023/08/06 01:47:13;;;;;;;19.50;9.50;;;;;;;13.40;100.00;96558.78;5052387;28;20406;-72
2023/08/06 01:49:39;;;;;;;24.80;11.20;;;;;;;13.38;100.00;96561.72;5052674;28;20748;-72
2023/08/06 01:52:06;;;;;;;25.85;11.23;;;;;;;13.36;100.00;96558.56;5052289;28;20500;-72
2023/08/06 01:54:33;;;;;;;26.88;11.73;;;;;;;13.34;100.00;96550.09;5052307;28;20409;-72
2023/08/06 01:57:00;;;;;;;28.05;11.93;;;;;;;13.33;100.00;96545.84;5052292;28;20401;-72
2023/08/06 01:59:27;;;;;;;24.00;10.90;;;;;;;13.31;100.00;96542.69;5052317;28;20397;-72
2023/08/06 02:01:53;;;;;;;22.60;11.00;;;;;;;13.30;100.00;96543.78;5052227;28;20810;-72
2023/08/06 02:04:19;;;;;;;18.60;10.07;;;;;;;13.27;100.00;96536.38;5052028;28;20406;-72
2023/08/06 02:06:45;;;;;;;19.88;9.35;;;;;;;13.26;100.00;96537.44;5052304;28;20405;-72
2023/08/06 02:09:11;;;;;;;18.80;9.27;;;;;;;13.23;100.00;96526.63;5050715;28;20414;-72
2023/08/06 02:11:38;;;;;;;23.42;10.27;;;;;;;13.20;100.00;96527.97;5051829;28;20406;-72
2023/08/06 02:14:05;;;;;;;21.08;9.18;;;;;;;13.17;100.00;96523.22;5052072;28;20425;-72
2023/08/06 02:16:31;;;;;;;24.55;10.23;;;;;;;13.15;100.00;96517.44;5051904;28;20398;-72
2023/08/06 02:18:57;;;;;;;23.70;9.67;;;;;;;13.12;100.00;96507.34;5051864;28;20433;-72
2023/08/06 02:21:23;;;;;;;20.17;8.88;;;;;;;13.10;100.00;96514.81;5051730;28;20749;-72
2023/08/06 02:23:50;;;;;;;23.95;9.82;;;;;;;13.07;100.00;96510.88;5051891;28;20437;-72
2023/08/06 02:26:16;;;;;;;24.38;10.18;;;;;;;13.02;100.00;96504.81;5051897;28;20436;-72
2023/08/06 02:28:42;;;;;;;22.48;9.20;;;;;;;12.97;100.00;96508.34;5051571;28;20408;-72
2023/08/06 02:31:10;;;;;;;22.13;8.97;;;;;;;12.92;100.00;96492.50;5051119;28;20401;-72
2023/08/06 02:33:36;;;;;;;18.58;8.32;;;;;;;12.90;100.00;96485.88;5050202;28;20421;-72
2023/08/06 02:36:04;;;;;;;23.70;9.30;;;;;;;12.86;100.00;96485.66;5051687;28;20409;-72
2023/08/06 02:38:30;;;;;;;28.42;10.82;;;;;;;12.84;100.00;96479.06;5051412;28;20404;-72
2023/08/06 02:40:56;;;;;;;21.08;9.57;;;;;;;12.80;100.00;96484.16;5051416;28;20401;-72
2023/08/06 02:43:23;;;;;;;21.83;9.82;;;;;;;12.76;100.00;96475.19;5051362;28;20485;-72
2023/08/06 02:45:49;;;;;;;27.33;10.80;;;;;;;12.75;100.00;96470.94;5051464;28;20398;-72
2023/08/06 02:48:18;;;;;;;23.48;10.30;;;;;;;12.73;100.00;96473.88;5051204;28;20930;-72
2023/08/06 02:50:44;;;;;;;20.98;9.18;;;;;;;12.71;100.00;96478.69;5043093;28;20401;-72
2023/08/06 02:53:10;;;;;;;21.85;9.45;;;;;;;12.69;100.00;96469.44;5051307;28;20929;-72
2023/08/06 02:55:37;;;;;;;22.67;9.63;;;;;;;12.66;100.00;96462.03;5051314;28;20802;-72
2023/08/06 02:58:03;;;;;;;29.02;10.68;;;;;;;12.63;100.00;96457.31;5051034;28;20406;-72
2023/08/06 03:00:29;;;;;;;24.33;9.23;;;;;;;12.61;100.00;96457.59;5051174;28;20433;-72
2023/08/06 03:02:55;;;;;;;20.98;9.15;;;;;;;12.62;100.00;96459.19;5051090;28;20401;-72
2023/08/06 03:05:23;;;;;;;25.60;10.73;;;;;;;12.63;100.00;96454.66;5051014;28;20409;-72
2023/08/06 03:07:49;;;;;;;24.58;9.70;;;;;;;12.62;100.00;96464.50;5051055;28;20492;-72
2023/08/06 03:10:15;;;;;;;22.03;9.17;;;;;;;12.64;100.00;96457.00;5051118;28;20937;-72
2023/08/06 03:12:42;;;;;;;22.05;8.90;;;;;;;12.66;100.00;96451.41;5050635;28;20425;-72
2023/08/06 03:15:09;;;;;;;17.50;7.90;;;;;;;12.69;100.00;96442.91;5050850;28;20401;-72
2023/08/06 03:17:35;;;;;;;21.05;8.73;;;;;;;12.72;100.00;96440.44;5050559;28;20405;-72
2023/08/06 03:20:01;;;;;;;17.85;8.05;;;;;;;12.74;100.00;96443.59;5050816;28;20404;-72
2023/08/06 03:22:29;;;;;;;17.27;8.32;;;;;;;12.77;100.00;96443.03;5050519;28;20402;-72
2023/08/06 03:24:55;;;;;;;17.67;7.95;;;;;;;12.80;100.00;96437.13;5050760;28;20891;-72
2023/08/06 03:27:21;;;;;;;20.50;8.52;;;;;;;12.81;100.00;96443.25;5050353;28;20412;-72
2023/08/06 03:29:50;;;;;;;18.65;8.30;;;;;;;12.83;100.00;96449.06;5050715;28;20891;-72
2023/08/06 03:32:16;;;;;;;17.35;8.20;;;;;;;12.84;100.00;96445.34;5050458;28;20417;-72
2023/08/06 03:34:42;;;;;;;18.67;8.20;;;;;;;12.84;100.00;96448.00;5050520;28;20484;-72
2023/08/06 03:37:09;;;;;;;16.30;7.90;;;;;;;12.85;100.00;96454.88;5050291;28;20412;-72
2023/08/06 03:39:36;;;;;;;12.85;7.00;;;;;;;12.88;100.00;96453.50;5050468;28;20907;-71
2023/08/06 03:42:02;;;;;;;10.63;6.18;;;;;;;12.90;100.00;96448.69;5049581;28;20404;-71
2023/08/06 03:44:29;;;;;;;17.30;7.30;;;;;;;12.92;100.00;96449.19;5050358;28;20401;-71
2023/08/06 03:46:55;;;;;;;13.93;6.53;;;;;;;12.91;100.00;96443.09;5050389;28;20954;-71
2023/08/06 03:49:21;;;;;;;13.85;6.35;;;;;;;12.91;100.00;96442.31;5050125;28;20830;-71
2023/08/06 03:51:47;;;;;;;12.98;6.13;;;;;;;12.91;100.00;96442.31;5050227;28;20448;-71
2023/08/06 03:54:13;;;;;;;11.63;5.65;;;;;;;12.92;100.00;96444.69;5050359;28;20409;-71
2023/08/06 03:56:41;;;;;;;10.60;5.80;;;;;;;12.95;100.00;96446.75;5050043;28;20504;-72
2023/08/06 03:59:07;;;;;;;13.20;6.40;;;;;;;12.95;100.00;96443.28;5050193;28;20806;-71
2023/08/06 04:01:33;;;;;;;12.07;5.40;;;;;;;12.95;100.00;96441.44;5050132;28;20402;-71
2023/08/06 04:04:00;;;;;;;12.13;5.80;;;;;;;12.95;100.00;96437.97;5050209;28;20409;-71
2023/08/06 04:06:26;;;;;;;10.00;4.93;;;;;;;12.96;100.00;96435.03;5050242;28;20405;-71
2023/08/06 04:08:52;;;;;;;9.77;5.38;;;;;;;12.98;100.00;96434.75;5050102;28;20409;-71
2023/08/06 04:11:18;;;;;;;11.93;5.65;;;;;;;13.00;100.00;96449.34;5050087;28;20891;-71
2023/08/06 04:13:46;;;;;;;11.30;5.90;;;;;;;13.05;100.00;96456.44;5050043;28;20471;-71
2023/08/06 04:16:13;;;;;;;17.13;6.30;;;;;;;13.07;100.00;96456.94;5050185;28;20476;-71
2023/08/06 04:18:39;;;;;;;13.48;5.80;;;;;;;13.08;100.00;96467.25;5049887;28;20941;-71
2023/08/06 04:21:05;;;;;;;13.55;5.60;;;;;;;13.09;100.00;96468.06;5050077;28;20409;-70
2023/08/06 04:23:31;;;;;;;8.57;4.88;;;;;;;13.10;100.00;96467.78;5050028;28;20408;-71
2023/08/06 04:25:58;;;;;;;9.55;5.03;;;;;;;13.11;100.00;96469.34;5036423;28;20403;-71
2023/08/06 04:28:24;;;;;;;18.45;7.47;;;;;;;13.13;100.00;96466.44;5028638;28;20925;-70
2023/08/06 04:30:53;;;;;;;14.50;6.57;;;;;;;13.12;100.00;96468.28;5030001;28;20789;-70
2023/08/06 04:33:20;;;;;;;11.82;5.70;;;;;;;13.13;100.00;96474.41;5030013;28;20460;-71
2023/08/06 04:35:46;;;;;;;11.15;5.05;;;;;;;13.13;100.00;96472.53;5030344;28;20403;-71
2023/08/06 04:38:12;;;;;;;15.37;6.00;;;;;;;13.15;100.00;96477.56;5029958;28;20885;-72
2023/08/06 04:40:38;;;;;;;15.10;6.15;;;;;;;13.12;100.00;96470.94;5029866;28;20403;-70
2023/08/06 04:43:04;;;;;;;18.23;6.70;;;;;;;13.10;100.00;96474.94;5029783;28;20414;-70
2023/08/06 04:45:31;;;;;;;18.55;6.82;;;;;;;13.05;100.00;96472.38;5029954;28;20488;-70
2023/08/06 04:47:58;;;;;;;13.82;5.90;;;;;;;13.02;100.00;96472.94;5029866;28;20445;-70
2023/08/06 04:50:24;;;;;;;13.65;5.57;;;;;;;13.02;100.00;96487.00;5029853;28;20881;-70
2023/08/06 04:52:51;;;;;;;11.88;5.35;;;;;;;13.03;100.00;96483.28;5030155;28;20429;-70
2023/08/06 04:55:17;;;;;;;11.73;5.35;;;;;;;13.06;100.00;96484.59;5033503;28;20971;-70
2023/08/06 04:57:43;;;;;;;9.50;4.87;;;;;;;13.08;100.00;96479.78;5032069;28;20963;-71
2023/08/06 05:00:10;;;;;;;11.23;5.50;;;;;;;13.09;100.00;96481.34;5033531;28;20407;-70
2023/08/06 05:02:38;;;;;;;11.85;4.82;;;;;;;13.09;100.00;96482.13;5033290;28;20952;-70
2023/08/06 05:05:06;;;;;;;9.50;4.55;;;;;;;13.10;100.00;96478.41;5033384;28;20490;-71
2023/08/06 05:07:32;;;;;;;9.05;4.50;;;;;;;13.12;100.00;96486.09;5033169;28;20439;-70
2023/08/06 05:09:58;;;;;;;18.33;7.68;;;;;;;13.12;100.00;96476.25;5033289;28;20891;-70
2023/08/06 05:12:24;;;;;;;16.43;6.53;;;;;;;13.08;100.00;96471.81;5031706;28;20492;-70
2023/08/06 05:14:51;;;;;;;15.57;5.68;;;;;;;13.08;100.00;96469.91;5033259;28;20497;-70
2023/08/06 05:17:17;;;;;;;14.40;6.40;;;;;;;13.14;100.00;96473.34;5033133;28;20411;-70
2023/08/06 05:19:43;;;;;;;13.93;5.72;;;;;;;13.17;100.00;96468.22;5033098;28;20418;-70
2023/08/06 05:22:11;;;;;;;16.73;5.93;;;;;;;13.27;100.00;96464.63;5033024;28;20405;-70
2023/08/06 05:24:37;;;;;;;12.05;5.25;;;;;;;13.35;100.00;96463.16;5033067;28;20407;-70
2023/08/06 05:27:04;;;;;;;16.95;5.72;;;;;;;13.44;100.00;96467.53;5032886;28;20928;-70
2023/08/06 05:29:30;;;;;;;13.53;5.17;;;;;;;13.48;100.00;96468.53;5031728;28;20516;-70
2023/08/06 05:31:56;;;;;;;13.57;5.18;;;;;;;13.51;100.00;96465.28;5032789;28;20628;-70
2023/08/06 05:34:22;;;;;;;11.07;4.43;;;;;;;13.54;100.00;96480.63;5032830;28;20399;-70
2023/08/06 05:36:48;;;;;;;11.63;4.70;;;;;;;13.66;100.00;96485.50;5032841;28;20943;-71
2023/08/06 05:39:16;;;;;;;17.40;6.10;;;;;;;13.73;100.00;96482.47;5032711;28;20414;-70
2023/08/06 05:41:42;;;;;;;13.80;5.28;;;;;;;13.73;100.00;96480.59;5032643;28;20893;-70
2023/08/06 05:44:08;;;;;;;10.40;4.50;;;;;;;13.75;100.00;96488.28;5032745;28;20399;-70
2023/08/06 05:46:34;;;;;;;12.33;4.67;;;;;;;13.73;100.00;96493.91;5032594;28;20465;-70
2023/08/06 05:49:00;;;;;;;9.57;3.95;;;;;;;13.72;100.00;96497.63;5032577;28;20403;-70
2023/08/06 05:51:28;;;;;;;10.52;3.90;;;;;;;13.71;100.00;96495.25;5032533;28;20441;-72
2023/08/06 05:53:54;;;;;;;13.48;4.57;;;;;;;13.70;100.00;96493.69;5032448;28;20423;-71
2023/08/06 05:56:21;;;;;;;9.15;3.60;;;;;;;13.64;100.00;96498.31;5032253;28;20410;-72
2023/08/06 05:58:48;;;;;;;10.25;4.00;;;;;;;13.64;100.00;96500.97;5031049;28;20403;-72
2023/08/06 06:01:14;;;;;;;9.57;3.70;;;;;;;13.63;100.00;96503.91;5032371;28;20901;-70
2023/08/06 06:03:41;;;;;;;8.60;3.30;;;;;;;13.62;100.00;96511.09;5032301;28;20406;-70
2023/08/06 06:06:07;;;;;;;10.27;3.70;;;;;;;13.61;100.00;96508.75;5031449;28;20765;-70
2023/08/06 06:08:33;;;;;;;8.90;3.33;;;;;;;13.57;100.00;96514.63;5032031;28;20407;-70
2023/08/06 06:11:00;;;;;;;7.40;3.13;;;;;;;13.55;100.00;96508.03;5032211;28;20408;-71
2023/08/06 06:13:27;;;;;;;12.77;3.70;;;;;;;13.52;100.00;96509.41;5030789;28;20703;-71
2023/08/06 06:15:55;;;;;;;8.67;3.00;;;;;;;13.45;100.00;96511.66;5032105;28;20911;-71
2023/08/06 06:18:22;;;;;;;5.93;2.67;;;;;;;13.46;100.00;96504.44;5031886;28;20481;-71
2023/08/06 06:20:48;;;;;;;9.73;2.90;;;;;;;13.48;100.00;96507.59;5032068;28;20441;-71
2023/08/06 06:23:14;;;;;;;9.73;2.92;;;;;;;13.45;100.00;96509.00;5031994;28;20396;-71
2023/08/06 06:25:43;;;;;;;6.88;2.40;;;;;;;13.45;100.00;96516.19;5031898;28;20407;-71
2023/08/06 06:28:09;;;;;;;5.95;2.60;;;;;;;13.42;100.00;96512.22;5031710;28;20494;-71
2023/08/06 06:30:37;;;;;;;4.28;2.40;;;;;;;13.41;100.00;96513.31;5031664;28;20461;-71
2023/08/06 06:33:03;;;;;;;8.35;2.60;;;;;;;13.45;100.00;96522.28;5031609;28;20415;-71
2023/08/06 06:35:29;;;;;;;6.07;2.50;;;;;;;13.43;100.00;96529.75;5031665;28;20411;-71
2023/08/06 06:37:55;;;;;;;4.00;2.23;;;;;;;13.48;100.00;96528.88;5031489;28;20411;-71
2023/08/06 06:40:22;;;;;;;7.10;2.45;;;;;;;13.52;100.00;96520.06;5031604;28;20411;-71
2023/08/06 06:42:48;;;;;;;7.97;2.60;;;;;;;13.61;100.00;96527.38;5031538;28;20742;-71
2023/08/06 06:45:14;;;;;;;7.35;2.50;;;;;;;13.71;100.00;96529.84;5031474;28;20908;-71
2023/08/06 06:47:42;;;;;;;5.38;2.50;;;;;;;13.79;100.00;96532.63;5031307;28;20812;-71
2023/08/06 06:50:08;;;;;;;8.95;2.90;;;;;;;13.81;100.00;96527.03;5031656;28;20403;-71
2023/08/06 06:52:35;;;;;;;7.10;2.60;;;;;;;13.83;100.00;96527.53;5031128;28;20425;-71
2023/08/06 06:55:01;;;;;;;7.90;2.40;;;;;;;13.83;100.00;96527.53;5031321;28;20407;-71
2023/08/06 06:57:27;;;;;;;6.57;2.20;;;;;;;13.76;100.00;96530.53;5030939;28;20404;-71
2023/08/06 06:59:53;;;;;;;5.90;2.13;;;;;;;13.73;100.00;96525.81;5031356;28;20399;-71
2023/08/06 07:02:20;;;;;;;4.47;2.15;;;;;;;13.68;100.00;96525.88;5031112;28;20399;-71
2023/08/06 07:04:47;;;;;;;6.75;2.45;;;;;;;13.70;100.00;96523.72;5031179;28;20407;-71
2023/08/06 07:07:14;;;;;;;5.93;2.33;;;;;;;13.68;100.00;96520.56;5030833;28;20465;-71
2023/08/06 07:09:40;;;;;;;5.95;2.10;;;;;;;13.67;100.00;96526.19;5030995;28;20415;-71
2023/08/06 07:12:07;;;;;;;4.47;2.10;;;;;;;13.59;100.00;96530.31;5037416;28;20425;-71
2023/08/06 07:14:33;;;;;;;6.65;2.25;;;;;;;13.54;100.00;96528.50;5040906;28;20493;-71
2023/08/06 07:16:59;;;;;;;3.53;2.05;;;;;;;13.54;100.00;96531.16;5030857;28;20494;-71
2023/08/06 07:19:25;;;;;;;6.28;2.20;;;;;;;13.50;100.00;96526.72;5030793;28;20416;-70
2023/08/06 07:21:53;;;;;;;5.53;2.00;;;;;;;13.48;100.00;96534.19;5030860;28;20411;-71
2023/08/06 07:24:19;;;;;;;3.47;1.80;;;;;;;13.46;100.00;96542.47;5030750;28;20409;-71
2023/08/06 07:26:45;;;;;;;4.03;1.73;;;;;;;13.47;100.00;96536.06;5047110;28;20438;-71
2023/08/06 07:29:12;;;;;;;4.30;2.08;;;;;;;13.47;100.00;96540.59;5030640;28;20406;-71
2023/08/06 07:31:38;;;;;;;4.88;2.10;;;;;;;13.49;100.00;96546.41;5030525;28;20413;-71
2023/08/06 07:34:04;;;;;;;4.85;2.20;;;;;;;13.52;100.00;96545.84;5030580;28;20949;-70
2023/08/06 07:36:30;;;;;;;3.38;1.90;;;;;;;13.55;100.00;96542.59;5030503;28;20410;-70
2023/08/06 07:38:58;;;;;;;5.07;1.90;;;;;;;13.57;100.00;96541.22;5030420;28;20438;-71
2023/08/06 07:41:24;;;;;;;3.75;2.00;;;;;;;13.60;100.00;96542.53;5030486;28;20406;-70
2023/08/06 07:43:50;;;;;;;4.97;1.80;;;;;;;13.61;100.00;96548.63;5029147;28;20900;-71
2023/08/06 07:46:17;;;;;;;5.15;1.95;;;;;;;13.67;100.00;96537.63;5030527;28;20417;-71
2023/08/06 07:48:43;;;;;;;4.32;2.05;;;;;;;13.65;100.00;96549.63;5030278;28;20407;-71
2023/08/06 07:51:10;;;;;;;4.18;1.90;;;;;;;13.70;100.00;96538.91;5030307;28;20773;-71
2023/08/06 07:53:36;;;;;;;5.75;1.90;;;;;;;13.69;100.00;96538.09;5030274;28;20498;-71
2023/08/06 07:56:03;;;;;;;4.38;1.80;;;;;;;13.75;100.00;96536.97;5029887;28;20487;-71
2023/08/06 07:58:30;;;;;;;3.70;1.50;;;;;;;13.78;100.00;96535.56;5030079;28;20407;-71
2023/08/06 08:00:56;;;;;;;6.45;1.90;;;;;;;13.87;100.00;96539.94;5030288;28;20406;-71
2023/08/06 08:03:22;;;;;;;3.28;1.60;;;;;;;13.95;100.00;96539.25;5030275;28;20491;-71
2023/08/06 08:05:48;;;;;;;3.47;1.70;;;;;;;13.98;100.00;96545.88;5030285;28;20526;-71
2023/08/06 08:08:15;;;;;;;2.13;1.30;;;;;;;14.04;100.00;96542.03;5030291;28;20466;-71
2023/08/06 08:10:41;;;;;;;1.75;1.38;;;;;;;13.97;100.00;96538.19;5030134;28;20441;-71
2023/08/06 08:13:10;;;;;;;4.55;1.38;;;;;;;13.92;100.00;96536.38;5038291;28;20473;-71
2023/08/06 08:15:36;;;;;;;2.15;1.20;;;;;;;14.04;100.00;96547.38;5038239;28;20788;-71
2023/08/06 08:18:02;;;;;;;3.10;1.20;;;;;;;14.14;100.00;96541.84;5037755;28;20403;-71
2023/08/06 08:20:31;;;;;;;2.95;1.20;;;;;;;14.18;100.00;96540.19;5031550;28;20645;-71
2023/08/06 08:22:59;;;;;;;2.05;1.10;;;;;;;14.18;100.00;96536.75;5044747;28;20434;-71
2023/08/06 08:25:25;;;;;;;2.30;1.20;;;;;;;14.30;100.00;96532.50;5038380;28;20411;-71
2023/08/06 08:27:51;;;;;;;1.02;0.90;;;;;;;14.44;100.00;96537.06;5034796;28;20891;-71
2023/08/06 08:30:19;;;;;;;1.50;0.90;;;;;;;14.55;100.00;96538.47;5038040;28;20413;-71
2023/08/06 08:32:45;;;;;;;1.65;1.00;;;;;;;14.61;100.00;96537.25;5033918;28;20445;-71
2023/08/06 08:35:12;;;;;;;1.48;0.82;;;;;;;14.71;100.00;96531.75;5033921;28;20413;-71
2023/08/06 08:37:39;;;;;;;2.40;0.80;;;;;;;14.59;100.00;96532.22;5036249;28;20403;-70
2023/08/06 08:40:06;;;;;;;1.90;0.90;;;;;;;14.42;100.00;96533.94;5039309;28;20408;-71
2023/08/06 08:42:32;;;;;;;0.90;0.82;;;;;;;14.31;100.00;96526.09;5035474;28;20877;-71
2023/08/06 08:44:59;;;;;;;0.85;0.80;;;;;;;14.31;100.00;96525.31;5048460;28;20426;-71
2023/08/06 08:47:27;;;;;;;1.63;0.80;;;;;;;14.46;100.00;96529.56;5033673;28;20405;-71
2023/08/06 08:49:57;;;;;;;1.50;0.90;;;;;;;14.52;100.00;96539.03;5033657;28;20410;-71
2023/08/06 08:52:25;;;;;;;1.20;0.90;;;;;;;14.54;100.00;96537.66;5034186;28;20481;-71
2023/08/06 08:54:52;;;;;;;0.80;0.80;;;;;;;14.55;100.00;96547.22;5049305;28;20395;-71
2023/08/06 08:57:20;;;;;;;0.70;0.70;;;;;;;14.76;100.00;96546.81;5041605;28;20609;-71
2023/08/06 08:59:46;;;;;;;1.90;1.08;;;;;;;14.86;100.00;96542.09;5033634;28;20876;-71
2023/08/06 09:02:14;;;;;;;1.77;1.20;;;;;;;14.76;100.00;96538.81;5040736;28;20901;-71
2023/08/06 09:04:44;;;;;;;0.80;0.75;;;;;;;14.55;100.00;96538.47;5042300;28;20411;-71
2023/08/06 09:07:13;;;;;;;2.13;0.80;;;;;;;14.52;100.00;96533.72;5033235;28;20422;-71
2023/08/06 09:09:41;;;;;;;1.45;0.90;;;;;;;14.27;100.00;96540.31;5041638;28;20401;-71
2023/08/06 09:12:14;;;;;;;2.10;0.70;;;;;;;14.41;100.00;96543.78;5040921;28;20398;-70
2023/08/06 09:14:40;;;;;;;0.80;0.80;;;;;;;14.42;100.00;96550.69;5033325;28;20900;-70
2023/08/06 09:17:07;;;;;;;0.80;0.80;;;;;;;14.52;100.00;96544.38;5033121;28;20399;-72
2023/08/06 09:19:33;;;;;;;0.95;0.70;;;;;;;14.61;100.00;96546.03;5033145;28;20889;-72
2023/08/06 09:22:01;;;;;;;2.28;0.63;;;;;;;14.72;100.00;96546.63;5033147;28;20410;-72
2023/08/06 09:24:27;;;;;;;0.70;0.70;;;;;;;14.90;100.00;96542.25;5033101;28;20418;-72
2023/08/06 09:26:54;;;;;;;1.02;0.70;;;;;;;14.98;100.00;96538.88;5033037;28;20403;-72
2023/08/06 09:29:20;;;;;;;0.60;0.60;;;;;;;15.22;100.00;96550.09;5032956;28;20414;-72
2023/08/06 09:31:48;;;;;;;0.90;0.70;;;;;;;15.29;100.00;96555.78;5031632;28;20415;-72
2023/08/06 09:34:16;;;;;;;0.50;0.50;;;;;;;15.35;100.00;96553.78;5032830;28;20411;-72
2023/08/06 09:36:45;;;;;;;0.80;0.60;;;;;;;15.10;100.00;96557.84;5032813;28;20399;-71
2023/08/06 09:39:17;;;;;;;0.73;0.70;;;;;;;14.97;100.00;96554.09;5032016;28;20800;-71
2023/08/06 09:41:44;;;;;;;0.93;0.70;;;;;;;14.81;100.00;96560.81;5032217;28;20403;-72
2023/08/06 09:44:21;;;;;;;0.70;0.70;;;;;;;14.84;100.00;96560.22;5032647;28;20419;-72
2023/08/06 09:46:51;;;;;;;0.70;0.60;;;;;;;14.83;100.00;96553.31;5032828;28;20403;-73
2023/08/06 09:49:19;;;;;;;0.70;0.70;;;;;;;14.91;100.00;96559.81;5032521;28;21008;-72
2023/08/06 09:51:46;;;;;;;0.80;0.80;;;;;;;14.88;100.00;96558.56;5044402;28;20454;-72
2023/08/06 09:54:15;;;;;;;0.60;0.60;;;;;;;14.95;100.00;96550.16;5052481;28;20463;-72
2023/08/06 09:56:43;;;;;;;0.68;0.68;;;;;;;14.96;100.00;96563.16;5052274;28;20405;-72
2023/08/06 09:59:10;;;;;;;0.60;0.60;;;;;;;14.85;100.00;96567.16;5052340;28;20827;-73
2023/08/06 10:01:37;;;;;;;0.80;0.70;;;;;;;14.65;100.00;96562.22;5052187;28;20397;-72
2023/08/06 10:04:05;;;;;;;0.70;0.70;;;;;;;14.64;100.00;96563.31;5052240;28;20433;-72
2023/08/06 10:06:36;;;;;;;0.70;0.70;;;;;;;14.52;100.00;96573.66;5052284;28;20409;-71
2023/08/06 10:09:02;;;;;;;0.70;0.70;;;;;;;14.48;100.00;96584.13;5052042;28;20401;-71
2023/08/06 10:11:30;;;;;;;1.60;0.63;;;;;;;14.48;100.00;96580.66;5052205;28;20459;-72
2023/08/06 10:14:03;;;;;;;0.73;0.73;;;;;;;14.51;100.00;96567.53;5052080;28;20536;-71
2023/08/06 10:16:29;;;;;;;0.70;0.70;;;;;;;14.51;100.00;96582.75;5052055;28;20412;-72
2023/08/06 10:18:57;;;;;;;0.60;0.60;;;;;;;14.43;100.00;96578.91;5051885;28;20406;-71
2023/08/06 10:21:24;;;;;;;0.70;0.70;;;;;;;14.44;100.00;96592.97;5051852;28;20397;-71
2023/08/06 10:23:54;;;;;;;0.75;0.75;;;;;;;14.44;100.00;96585.78;5052034;28;20631;-72
2023/08/06 10:26:24;;;;;;;0.75;0.75;;;;;;;14.34;100.00;96593.94;5051836;28;20489;-72
2023/08/06 10:28:52;;;;;;;0.70;0.70;;;;;;;14.32;100.00;96598.75;5051646;28;20401;-72
2023/08/06 10:31:18;;;;;;;0.60;0.60;;;;;;;14.41;100.00;96594.38;5051766;28;20397;-72
2023/08/06 10:33:46;;;;;;;0.95;0.70;;;;;;;14.50;100.00;96589.94;5051681;28;20452;-72
2023/08/06 10:36:14;;;;;;;1.20;0.90;;;;;;;14.57;100.00;96600.22;5051690;28;20740;-72
2023/08/06 10:38:48;;;;;;;0.80;0.70;;;;;;;14.53;100.00;96584.03;5051480;28;20417;-72
2023/08/06 10:41:23;;;;;;;0.65;0.60;;;;;;;14.62;100.00;96582.25;5051562;28;20397;-72
2023/08/06 10:43:51;;;;;;;0.90;0.70;;;;;;;14.75;100.00;96587.84;5051628;28;20394;-71
2023/08/06 10:46:27;;;;;;;0.70;0.70;;;;;;;14.83;100.00;96585.28;5051497;28;20409;-72
2023/08/06 10:48:54;;;;;;;0.70;0.70;;;;;;;14.83;100.00;96584.50;5051301;28;20917;-71
2023/08/06 10:51:20;;;;;;;0.70;0.70;;;;;;;14.75;100.00;96590.53;5049586;28;20414;-72
2023/08/06 10:53:47;;;;;;;1.48;0.70;;;;;;;14.75;100.00;96595.84;5051419;28;20417;-72
2023/08/06 10:56:14;;;;;;;0.82;0.68;;;;;;;14.73;100.00;96603.38;5051292;28;20404;-72
2023/08/06 10:58:40;;;;;;;2.58;0.70;;;;;;;14.72;100.00;96613.25;5051135;28;20546;-72
2023/08/06 11:01:08;;;;;;;2.25;0.85;;;;;;;14.62;100.00;96610.75;5051184;28;20405;-72
2023/08/06 11:03:35;;;;;;;0.80;0.80;;;;;;;14.62;100.00;96611.56;5050966;28;20920;-72
2023/08/06 11:06:02;;;;;;;1.55;0.90;;;;;;;14.72;100.00;96615.91;5051172;28;20409;-72
2023/08/06 11:08:32;;;;;;;0.98;0.88;;;;;;;14.75;100.00;96623.28;5050981;28;20404;-72
2023/08/06 11:11:10;;;;;;;2.37;1.13;;;;;;;14.62;100.00;96610.75;5049514;28;20402;-72
2023/08/06 11:13:37;;;;;;;2.13;1.10;;;;;;;14.55;100.00;96624.47;5050881;28;20559;-72
2023/08/06 11:16:04;;;;;;;3.05;1.30;;;;;;;14.52;100.00;96632.25;5050970;28;20763;-72
2023/08/06 11:18:32;;;;;;;2.23;1.23;;;;;;;14.39;100.00;96625.81;5050674;28;20486;-71